LOXZ 192350Z VRB02KT 9999 BKN300 12/09 Q1026 LOXZ 192050Z VRB02KT 9999 BKN300 15/10 Q1025 LOXZ 191950Z VRB02KT 9999 BKN300 17/10 Q1025 LOXZ 191850Z VRB02KT 9999 SCT300 19/10 Q1024 LOXZ 191750Z 22003KT 190V260 9999 FEW060 SCT300 23/09 Q1024 LOXZ 191650Z 22006KT 180V240 9999 FEW060 SCT300 24/10 Q1024 NOSIG LOXZ 191620Z 21009KT 190V250 9999 FEW060 SCT300 24/10 Q1023 NOSIG LOXZ 191550Z 21009KT 170V240 9999 FEW060 SCT300 25/10 Q1023 NOSIG LOXZ 191520Z 21010KT 9999 FEW060 SCT300 25/10 Q1024 NOSIG LOXZ 191450Z 22009KT 180V240 9999 FEW060 SCT300 25/10 Q1024 NOSIG LOXZ 191420Z 22009KT 9999 FEW060 SCT300 25/10 Q1024 NOSIG LOXZ 191350Z 22007KT 160V280 9999 FEW060 SCT300 25/11 Q1024 NOSIG LOXZ 191320Z 22006KT 190V260 9999 FEW060 SCT300 25/11 Q1024 NOSIG LOXZ 191250Z 24006KT 190V280 9999 FEW060 SCT300 24/10 Q1024 NOSIG LOXZ 191220Z 24006KT 190V310 9999 FEW060 SCT300 24/10 Q1025 NOSIG LOXZ 191150Z 21007KT 150V280 9999 FEW060 SCT300 23/10 Q1025 NOSIG LOXZ 191120Z 21006KT 160V260 9999 FEW060 SCT300 23/10 Q1025 NOSIG LOXZ 191050Z VRB05KT 9999 FEW060 BKN300 23/10 Q1026 NOSIG LOXZ 191020Z 24005KT 120V280 9999 FEW060 BKN300 22/10 Q1026 NOSIG LOXZ 190950Z VRB04KT 9999 FEW060 BKN300 21/09 Q1026 NOSIG LOXZ 190920Z 24004KT 160V310 9999 FEW060 BKN300 20/08 Q1027 NOSIG LOXZ 190850Z VRB01KT 9999 FEW060 SCT300 19/09 Q1027 NOSIG LOXZ 190820Z VRB02KT 9999 FEW060 SCT300 17/09 Q1027 NOSIG LOXZ 190750Z 05003KT 360V120 9999 FEW055 SCT300 15/09 Q1028 NOSIG LOXZ 190720Z VRB02KT 9999 FEW050 SCT300 14/09 Q1028 NOSIG LOXZ 190620Z VRB01KT 9999 FEW050 SCT300 10/07 Q1028 NOSIG LOXZ 190550Z 00000KT 9999 FEW050 SCT300 09/06 Q1028 NOSIG LOXZ 190520Z 00000KT 9999 FEW050 SCT300 08/06 Q1028 NOSIG LOXZ 190450Z VRB01KT 9999 SCT300 08/05 Q1028 LOXZ 190350Z VRB01KT 9999 FEW150 06/05 Q1028 LOXZ 190250Z VRB02KT 9999 FEW060 05/04 Q1028 LOXZ 182350Z 23002KT 9999 FEW060 08/06 Q1028 LOXZ 182050Z 13007KT 100V160 9999 FEW060 15/05 Q1028 LOXZ 181950Z VRB02KT 9999 FEW060 15/06 Q1028 LOXZ 181850Z 12006KT 080V160 9999 FEW060 17/06 Q1027 LOXZ 181750Z 13007KT 100V170 9999 FEW060 18/06 Q1026 NOSIG LOXZ 181650Z 13008KT 100V160 9999 FEW060 19/07 Q1025 NOSIG LOXZ 181620Z 12009KT 100V160 9999 FEW060 20/07 Q1025 NOSIG LOXZ 181550Z 13009KT 100V160 9999 FEW060 21/07 Q1025 NOSIG LOXZ 181520Z 14009KT 110V170 9999 FEW060 SCT070 21/07 Q1025 NOSIG LOXZ 181450Z 14008KT 110V170 9999 FEW060 SCT070 21/08 Q1025 NOSIG LOXZ 181420Z 12007KT 080V170 9999 FEW060 SCT070 21/09 Q1025 NOSIG LOXZ 181350Z 10008KT 070V150 9999 FEW055 SCT070 22/08 Q1025 NOSIG LOXZ 181320Z 13007KT 070V180 9999 FEW055 SCT070 21/08 Q1025 NOSIG LOXZ 181250Z 15009KT 110V180 9999 FEW055 BKN070 21/08 Q1025 NOSIG LOXZ 181220Z 14007KT 100V200 9999 FEW053 BKN065 20/09 Q1025 NOSIG

METAR Messwerte "ZELTWEG (MIL)" LOXZ

Zurück zur Übersicht

Ortsname
Ländercode / m ü. NN
Zeit Temperatur Taupunkt Rel.
Luftfeuchte
Luftdruck:
Altimeter
NN
Station
Wind in Beaufort
(Knoten)
Sichtweite
(Meter)
Wolken
(Meter über Grund)
Wettererscheinung
ZELTWEG (MIL)
AT 678
Fr 20.05. 01:5012982 %1026
1027
946
Uml 1 (2)>= 10000Stark bewölkt (9100) 
ZELTWEG (MIL)
AT 678
Do 19.05. 22:50151072 %1025
1025
945
Uml 1 (2)>= 10000Stark bewölkt (9100) 
ZELTWEG (MIL)
AT 678
Do 19.05. 21:50171063 %1025
1025
945
Uml 1 (2)>= 10000Stark bewölkt (9100) 
ZELTWEG (MIL)
AT 678
Do 19.05. 20:50191056 %1024
1023
944
Uml 1 (2)>= 10000Wolkig (9100) 
ZELTWEG (MIL)
AT 678
Do 19.05. 19:5023941 %1024
1022
944
SW 2 (3)
S - W
>= 10000Wolkig (9100)
Leicht bewölkt (1800)
 
ZELTWEG (MIL)
AT 678
Do 19.05. 18:50241041 %1024
1022
944
SW 2 (6)
S - WSW
>= 10000Wolkig (9100)
Leicht bewölkt (1800)
 
ZELTWEG (MIL)
AT 678
Do 19.05. 18:20241041 %1023
1021
944
SSW 3 (9)
S - WSW
>= 10000Wolkig (9100)
Leicht bewölkt (1800)
 
ZELTWEG (MIL)
AT 678
Do 19.05. 17:50251039 %1023
1020
944
SSW 3 (9)
S - WSW
>= 10000Wolkig (9100)
Leicht bewölkt (1800)
 
ZELTWEG (MIL)
AT 678
Do 19.05. 17:20251039 %1024
1021
944
SSW 3 (10)>= 10000Wolkig (9100)
Leicht bewölkt (1800)
 
ZELTWEG (MIL)
AT 678
Do 19.05. 16:50251039 %1024
1021
944
SW 3 (9)
S - WSW
>= 10000Wolkig (9100)
Leicht bewölkt (1800)
 
ZELTWEG (MIL)
AT 678
Do 19.05. 16:20251039 %1024
1021
944
SW 3 (9)>= 10000Wolkig (9100)
Leicht bewölkt (1800)
 
ZELTWEG (MIL)
AT 678
Do 19.05. 15:50251141 %1024
1021
944
SW 3 (7)
SSO - W
>= 10000Wolkig (9100)
Leicht bewölkt (1800)
 
ZELTWEG (MIL)
AT 678
Do 19.05. 15:20251141 %1024
1021
944
SW 2 (6)
S - W
>= 10000Wolkig (9100)
Leicht bewölkt (1800)
 
ZELTWEG (MIL)
AT 678
Do 19.05. 14:50241041 %1024
1022
944
WSW 2 (6)
S - W
>= 10000Wolkig (9100)
Leicht bewölkt (1800)
 
ZELTWEG (MIL)
AT 678
Do 19.05. 14:20241041 %1025
1023
945
WSW 2 (6)
S - NW
>= 10000Wolkig (9100)
Leicht bewölkt (1800)
 
ZELTWEG (MIL)
AT 678
Do 19.05. 13:50231044 %1025
1023
945
SSW 3 (7)
SSO - W
>= 10000Wolkig (9100)
Leicht bewölkt (1800)
 
ZELTWEG (MIL)
AT 678
Do 19.05. 13:20231044 %1025
1023
945
SSW 2 (6)
SSO - W
>= 10000Wolkig (9100)
Leicht bewölkt (1800)
 
ZELTWEG (MIL)
AT 678
Do 19.05. 12:50231044 %1026
1024
946
Uml 2 (5)>= 10000Stark bewölkt (9100)
Leicht bewölkt (1800)
 
ZELTWEG (MIL)
AT 678
Do 19.05. 12:20221046 %1026
1024
946
WSW 2 (5)
OSO - W
>= 10000Stark bewölkt (9100)
Leicht bewölkt (1800)
 
ZELTWEG (MIL)
AT 678
Do 19.05. 11:5021946 %1026
1024
946
Uml 2 (4)>= 10000Stark bewölkt (9100)
Leicht bewölkt (1800)
 
ZELTWEG (MIL)
AT 678
Do 19.05. 11:2020846 %1027
1026
947
WSW 2 (4)
SSO - NW
>= 10000Stark bewölkt (9100)
Leicht bewölkt (1800)
 
ZELTWEG (MIL)
AT 678
Do 19.05. 10:5019952 %1027
1026
947
Uml 1 (1)>= 10000Wolkig (9100)
Leicht bewölkt (1800)
 
ZELTWEG (MIL)
AT 678
Do 19.05. 10:2017959 %1027
1027
947
Uml 1 (2)>= 10000Wolkig (9100)
Leicht bewölkt (1800)
 
ZELTWEG (MIL)
AT 678
Do 19.05. 09:5015967 %1028
1028
948
NO 2 (3)
N - OSO
>= 10000Wolkig (9100)
Leicht bewölkt (1700)
 
ZELTWEG (MIL)
AT 678
Do 19.05. 09:2014972 %1028
1029
948
Uml 1 (2)>= 10000Wolkig (9100)
Leicht bewölkt (1500)
 
ZELTWEG (MIL)
AT 678
Do 19.05. 08:2010782 %1028
1030
948
Uml 1 (1)>= 10000Wolkig (9100)
Leicht bewölkt (1500)
 
ZELTWEG (MIL)
AT 678
Do 19.05. 07:509681 %1028
1030
948
Windstill>= 10000Wolkig (9100)
Leicht bewölkt (1500)
 
ZELTWEG (MIL)
AT 678
Do 19.05. 07:208687 %1028
1030
948
Windstill>= 10000Wolkig (9100)
Leicht bewölkt (1500)
 
ZELTWEG (MIL)
AT 678
Do 19.05. 06:508581 %1028
1030
948
Uml 1 (1)>= 10000Wolkig (9100) 
ZELTWEG (MIL)
AT 678
Do 19.05. 05:506593 %1028
1031
948
Uml 1 (1)>= 10000Leicht bewölkt (4600) 
ZELTWEG (MIL)
AT 678
Do 19.05. 04:505493 %1028
1031
948
Uml 1 (2)>= 10000Leicht bewölkt (1800) 
ZELTWEG (MIL)
AT 678
Do 19.05. 01:508687 %1028
1030
948
SW 1 (2)>= 10000Leicht bewölkt (1800) 
ZELTWEG (MIL)
AT 678
Mi 18.05. 22:5015551 %1028
1028
948
SO 3 (7)
O - SSO
>= 10000Leicht bewölkt (1800) 
ZELTWEG (MIL)
AT 678
Mi 18.05. 21:5015655 %1028
1028
948
Uml 1 (2)>= 10000Leicht bewölkt (1800) 
ZELTWEG (MIL)
AT 678
Mi 18.05. 20:5017648 %1027
1027
947
OSO 2 (6)
O - SSO
>= 10000Leicht bewölkt (1800) 
ZELTWEG (MIL)
AT 678
Mi 18.05. 19:5018645 %1026
1025
946
SO 3 (7)
O - S
>= 10000Leicht bewölkt (1800) 
ZELTWEG (MIL)
AT 678
Mi 18.05. 18:5019746 %1025
1024
945
SO 3 (8)
O - SSO
>= 10000Leicht bewölkt (1800) 
ZELTWEG (MIL)
AT 678
Mi 18.05. 18:2020743 %1025
1024
945
OSO 3 (9)
O - SSO
>= 10000Leicht bewölkt (1800) 
ZELTWEG (MIL)
AT 678
Mi 18.05. 17:5021740 %1025
1023
945
SO 3 (9)
O - SSO
>= 10000Leicht bewölkt (1800) 
ZELTWEG (MIL)
AT 678
Mi 18.05. 17:2021740 %1025
1023
945
SO 3 (9)
OSO - S
>= 10000Wolkig (2100)
Leicht bewölkt (1800)
 
ZELTWEG (MIL)
AT 678
Mi 18.05. 16:5021843 %1025
1023
945
SO 3 (8)
OSO - S
>= 10000Wolkig (2100)
Leicht bewölkt (1800)
 
ZELTWEG (MIL)
AT 678
Mi 18.05. 16:2021946 %1025
1023
945
OSO 3 (7)
O - S
>= 10000Wolkig (2100)
Leicht bewölkt (1800)
 
ZELTWEG (MIL)
AT 678
Mi 18.05. 15:5022841 %1025
1023
945
O 3 (8)
ONO - SSO
>= 10000Wolkig (2100)
Leicht bewölkt (1700)
 
ZELTWEG (MIL)
AT 678
Mi 18.05. 15:2021843 %1025
1023
945
SO 3 (7)
ONO - S
>= 10000Wolkig (2100)
Leicht bewölkt (1700)
 
ZELTWEG (MIL)
AT 678
Mi 18.05. 14:5021843 %1025
1023
945
SSO 3 (9)
OSO - S
>= 10000Stark bewölkt (2100)
Leicht bewölkt (1700)
 
ZELTWEG (MIL)
AT 678
Mi 18.05. 14:2020949 %1025
1024
945
SO 3 (7)
O - SSW
>= 10000Stark bewölkt (2000)
Leicht bewölkt (1600)
 

Altimeter: Einstellung am Altimeter (Höhenmesser), die Höhe 0 muss auf diesen Luftdruckwert zeigen, damit das Gerät die Stationshöhe richtig anzeigt.

NN: Luftdruck reduziert auf "Normal Null", auf Meereshöhe, dieser von der Temperatur abhängige Wert wird bisweilen unkorrekt einfach als "Luftdruck" bezeichnet. Eigentlich nur eine fiktive Größe, die es erlaubt, Stationen auf unterschiedlichen Höhen miteinander zu vergleichen.

Station: Realer Luftdruck an der Station.